createdAt,value
2023-05-05T00:00:21.512Z,316.00
2023-05-05T00:01:21.557Z,317.00
2023-05-05T00:02:21.700Z,317.00
2023-05-05T00:03:21.702Z,318.00
2023-05-05T00:04:21.683Z,319.00
2023-05-05T00:05:21.731Z,316.00
2023-05-05T00:06:21.719Z,315.00
2023-05-05T00:07:21.783Z,316.00
2023-05-05T00:08:21.846Z,316.00
2023-05-05T00:09:21.836Z,318.00
2023-05-05T00:10:21.884Z,319.00
2023-05-05T00:11:21.967Z,322.00
2023-05-05T00:12:21.979Z,320.00
2023-05-05T00:13:21.983Z,321.00
2023-05-05T00:14:22.037Z,320.00
2023-05-05T00:15:22.096Z,318.00
2023-05-05T00:16:22.184Z,317.00
2023-05-05T00:17:22.168Z,317.00
2023-05-05T00:18:22.181Z,317.00
2023-05-05T00:19:22.223Z,316.00
2023-05-05T00:20:22.270Z,320.00
2023-05-05T00:21:22.320Z,321.00
2023-05-05T00:22:22.311Z,323.00
2023-05-05T00:23:22.400Z,324.00
2023-05-05T00:24:22.471Z,323.00
2023-05-05T00:25:22.472Z,322.00
2023-05-05T00:26:22.524Z,320.00
2023-05-05T00:27:22.546Z,318.00
2023-05-05T00:28:22.592Z,319.00
2023-05-05T00:29:22.641Z,320.00
2023-05-05T00:30:22.678Z,319.00
2023-05-05T00:31:22.844Z,318.00
2023-05-05T00:32:22.802Z,316.00
2023-05-05T00:33:22.843Z,316.00
2023-05-05T00:34:22.890Z,314.00
2023-05-05T00:35:22.911Z,315.00
2023-05-05T00:36:23.004Z,316.00
2023-05-05T00:37:23.017Z,318.00
2023-05-05T00:38:23.050Z,317.00
2023-05-05T00:39:23.124Z,319.00
2023-05-05T00:40:23.172Z,317.00
2023-05-05T00:41:23.246Z,317.00
2023-05-05T00:42:23.300Z,315.00
2023-05-05T00:43:23.354Z,313.00
2023-05-05T00:44:23.421Z,313.00
2023-05-05T00:45:23.428Z,315.00
2023-05-05T00:46:23.554Z,316.00
2023-05-05T00:47:23.552Z,316.00
2023-05-05T00:48:23.587Z,316.00
2023-05-05T00:49:23.729Z,314.00
2023-05-05T00:50:23.712Z,314.00
2023-05-05T00:51:23.777Z,314.00
2023-05-05T00:52:23.836Z,315.00
2023-05-05T00:53:23.851Z,316.00
2023-05-05T00:54:23.922Z,318.00
2023-05-05T00:55:23.959Z,319.00
2023-05-05T00:56:24.103Z,322.00
2023-05-05T00:57:24.032Z,324.00
2023-05-05T00:58:24.134Z,323.00
2023-05-05T00:59:24.141Z,322.00
2023-05-05T01:00:24.198Z,321.00
2023-05-05T01:01:24.280Z,322.00
2023-05-05T01:02:24.290Z,323.00
2023-05-05T01:03:24.445Z,324.00
2023-05-05T01:04:24.390Z,323.00
2023-05-05T01:05:24.427Z,323.00
2023-05-05T01:06:24.488Z,320.00
2023-05-05T01:07:24.548Z,321.00
2023-05-05T01:08:24.630Z,320.00
2023-05-05T01:09:24.657Z,321.00
2023-05-05T01:10:25.028Z,322.00
2023-05-05T01:11:24.729Z,322.00
2023-05-05T01:12:24.790Z,322.00
2023-05-05T01:13:24.867Z,324.00
2023-05-05T01:14:24.903Z,325.00
2023-05-05T01:15:24.967Z,326.00
2023-05-05T01:16:25.091Z,324.00
2023-05-05T01:17:25.127Z,321.00
2023-05-05T01:18:25.097Z,322.00
2023-05-05T01:19:25.150Z,322.00
2023-05-05T01:20:25.206Z,324.00
2023-05-05T01:21:25.294Z,324.00
2023-05-05T01:22:25.318Z,324.00
2023-05-05T01:23:25.391Z,324.00
2023-05-05T01:24:25.445Z,323.00
2023-05-05T01:25:25.461Z,324.00
2023-05-05T01:26:25.559Z,327.00
2023-05-05T01:27:25.587Z,326.00
2023-05-05T01:28:25.668Z,323.00
2023-05-05T01:29:25.742Z,323.00
2023-05-05T01:30:25.788Z,320.00
2023-05-05T01:31:25.877Z,322.00
2023-05-05T01:32:25.911Z,323.00
2023-05-05T01:33:25.900Z,322.00
2023-05-05T01:34:25.953Z,321.00
2023-05-05T01:35:26.030Z,321.00
2023-05-05T01:36:26.065Z,321.00
2023-05-05T01:37:26.081Z,321.00
2023-05-05T01:38:26.200Z,320.00
2023-05-05T01:39:26.209Z,318.00
2023-05-05T01:40:26.272Z,317.00
2023-05-05T01:41:26.332Z,320.00
2023-05-05T01:42:26.372Z,320.00
2023-05-05T01:43:26.481Z,319.00
2023-05-05T01:44:26.508Z,317.00
2023-05-05T01:45:26.549Z,317.00
2023-05-05T01:46:26.644Z,318.00
2023-05-05T01:47:26.776Z,318.00
2023-05-05T01:48:26.722Z,317.00
2023-05-05T01:49:26.779Z,318.00
2023-05-05T01:50:26.836Z,318.00
2023-05-05T01:51:26.897Z,318.00
2023-05-05T01:52:26.930Z,320.00
2023-05-05T01:53:26.954Z,319.00
2023-05-05T01:54:27.069Z,318.00
2023-05-05T01:55:27.127Z,319.00
2023-05-05T01:56:27.160Z,317.00
2023-05-05T01:57:27.206Z,317.00
2023-05-05T01:58:27.246Z,319.00
2023-05-05T01:59:27.275Z,317.00
2023-05-05T02:00:27.361Z,313.00
2023-05-05T02:01:27.411Z,315.00
2023-05-05T02:02:27.547Z,315.00
2023-05-05T02:03:27.553Z,313.00
2023-05-05T02:04:27.596Z,313.00
2023-05-05T02:05:27.652Z,313.00
2023-05-05T02:06:27.761Z,314.00
2023-05-05T02:07:27.742Z,314.00
2023-05-05T02:08:27.778Z,315.00
2023-05-05T02:09:27.857Z,313.00
2023-05-05T02:10:27.907Z,312.00
2023-05-05T02:11:27.989Z,311.00
2023-05-05T02:12:28.017Z,310.00
2023-05-05T02:13:28.117Z,311.00
2023-05-05T02:14:28.132Z,310.00
2023-05-05T02:15:28.200Z,309.00
2023-05-05T02:16:28.257Z,308.00
2023-05-05T02:17:28.295Z,304.00
2023-05-05T02:18:28.381Z,305.00
2023-05-05T02:19:28.391Z,308.00
2023-05-05T02:20:28.453Z,308.00
2023-05-05T02:21:28.527Z,307.00
2023-05-05T02:22:28.576Z,307.00
2023-05-05T02:23:28.601Z,309.00
2023-05-05T02:24:28.644Z,311.00
2023-05-05T02:25:28.713Z,313.00
2023-05-05T02:26:28.791Z,314.00
2023-05-05T02:27:28.836Z,315.00
2023-05-05T02:28:28.950Z,315.00
2023-05-05T02:29:28.947Z,316.00
2023-05-05T02:30:28.989Z,317.00
2023-05-05T02:31:29.164Z,318.00
2023-05-05T02:32:29.160Z,317.00
2023-05-05T02:33:29.211Z,317.00
2023-05-05T02:34:29.265Z,315.00
2023-05-05T02:35:29.293Z,313.00
2023-05-05T02:36:29.463Z,311.00
2023-05-05T02:37:29.437Z,312.00
2023-05-05T02:38:29.474Z,313.00
2023-05-05T02:39:29.500Z,314.00
2023-05-05T02:40:29.583Z,314.00
2023-05-05T02:41:29.646Z,314.00
2023-05-05T02:42:29.706Z,312.00
2023-05-05T02:43:29.817Z,311.00
2023-05-05T02:44:29.819Z,310.00
2023-05-05T02:45:29.894Z,311.00
2023-05-05T02:46:29.986Z,313.00
2023-05-05T02:47:30.009Z,315.00
2023-05-05T02:48:30.073Z,312.00
2023-05-05T02:49:30.130Z,313.00
2023-05-05T02:50:30.165Z,312.00
2023-05-05T02:51:30.247Z,312.00
2023-05-05T02:52:30.301Z,310.00
2023-05-05T02:53:30.336Z,313.00
2023-05-05T02:54:30.400Z,314.00
2023-05-05T02:55:30.492Z,312.00
2023-05-05T02:56:30.529Z,308.00
2023-05-05T02:57:30.578Z,309.00
2023-05-05T02:58:30.623Z,308.00
2023-05-05T02:59:30.693Z,309.00
2023-05-05T03:00:30.760Z,310.00
2023-05-05T03:01:30.838Z,309.00
2023-05-05T03:02:30.983Z,310.00
2023-05-05T03:03:31.026Z,311.00
2023-05-05T03:04:30.994Z,313.00
2023-05-05T03:05:31.165Z,314.00
2023-05-05T03:06:31.135Z,315.00
2023-05-05T03:07:31.165Z,313.00
2023-05-05T03:08:31.281Z,315.00
2023-05-05T03:09:31.302Z,316.00
2023-05-05T03:10:31.333Z,316.00
2023-05-05T03:11:31.453Z,316.00
2023-05-05T03:12:31.495Z,316.00
2023-05-05T03:13:31.562Z,316.00
2023-05-05T03:14:33.366Z,318.00
2023-05-05T03:15:31.708Z,314.00
2023-05-05T03:16:31.764Z,312.00
2023-05-05T03:17:31.778Z,312.00
2023-05-05T03:18:31.825Z,311.00
2023-05-05T03:19:31.862Z,313.00
2023-05-05T03:20:31.962Z,315.00
2023-05-05T03:21:31.994Z,317.00
2023-05-05T03:22:32.072Z,319.00
2023-05-05T03:23:32.178Z,319.00
2023-05-05T03:24:32.176Z,320.00
2023-05-05T03:25:32.265Z,318.00
2023-05-05T03:26:32.309Z,317.00
2023-05-05T03:27:32.392Z,316.00
2023-05-05T03:28:32.441Z,316.00
2023-05-05T03:29:32.457Z,319.00
2023-05-05T03:30:32.550Z,319.00
2023-05-05T03:31:32.623Z,319.00
2023-05-05T03:32:32.681Z,318.00
2023-05-05T03:33:32.760Z,315.00
2023-05-05T03:34:32.779Z,315.00
2023-05-05T03:35:32.845Z,315.00
2023-05-05T03:36:32.899Z,313.00
2023-05-05T03:37:32.959Z,310.00
2023-05-05T03:38:33.009Z,313.00
2023-05-05T03:39:33.104Z,313.00
2023-05-05T03:40:43.488Z,312.00
2023-05-05T03:41:34.106Z,311.00
2023-05-05T03:42:33.142Z,313.00
2023-05-05T03:43:33.118Z,313.00
2023-05-05T03:44:33.110Z,314.00
2023-05-05T03:45:33.091Z,315.00
2023-05-05T03:46:33.131Z,315.00
2023-05-05T03:47:33.134Z,318.00
2023-05-05T03:48:33.054Z,315.00
2023-05-05T03:49:33.059Z,314.00
2023-05-05T03:50:33.076Z,313.00
2023-05-05T03:51:33.158Z,312.00
2023-05-05T03:52:33.219Z,312.00
2023-05-05T03:53:33.271Z,311.00
2023-05-05T03:54:33.365Z,311.00
2023-05-05T03:55:33.446Z,312.00
2023-05-05T03:56:33.459Z,314.00
2023-05-05T03:57:33.524Z,313.00
2023-05-05T03:58:33.575Z,311.00
2023-05-05T03:59:33.612Z,310.00
2023-05-05T04:00:33.654Z,310.00
2023-05-05T04:01:33.736Z,307.00
2023-05-05T04:02:33.913Z,310.00
2023-05-05T04:03:33.908Z,311.00
2023-05-05T04:04:33.967Z,310.00
2023-05-05T04:05:33.983Z,310.00
2023-05-05T04:06:34.015Z,311.00
2023-05-05T04:07:34.079Z,313.00
2023-05-05T04:08:34.133Z,314.00
2023-05-05T04:09:34.191Z,316.00
2023-05-05T04:10:34.276Z,316.00
2023-05-05T04:11:34.298Z,317.00
2023-05-05T04:12:34.382Z,316.00
2023-05-05T04:13:34.406Z,318.00
2023-05-05T04:14:34.446Z,323.00
2023-05-05T04:15:34.449Z,323.00
2023-05-05T04:16:34.469Z,325.00
2023-05-05T04:17:34.518Z,325.00
2023-05-05T04:18:34.557Z,327.00
2023-05-05T04:19:34.551Z,327.00
2023-05-05T04:20:34.544Z,328.00
2023-05-05T04:21:34.617Z,328.00
2023-05-05T04:22:34.646Z,326.00
2023-05-05T04:23:34.707Z,326.00
2023-05-05T04:24:34.713Z,328.00
2023-05-05T04:25:34.876Z,326.00
2023-05-05T04:26:34.800Z,324.00
2023-05-05T04:27:34.879Z,325.00
2023-05-05T04:28:34.832Z,324.00
2023-05-05T04:29:34.885Z,324.00
2023-05-05T04:30:34.889Z,323.00
2023-05-05T04:31:34.935Z,325.00
2023-05-05T04:32:34.932Z,326.00
2023-05-05T04:33:34.994Z,327.00
2023-05-05T04:34:34.904Z,331.00
2023-05-05T04:35:34.990Z,330.00
2023-05-05T04:36:34.997Z,331.00
2023-05-05T04:37:35.073Z,332.00
2023-05-05T04:38:35.134Z,330.00
2023-05-05T04:39:35.171Z,329.00
2023-05-05T04:40:35.191Z,329.00
2023-05-05T04:41:35.241Z,329.00
2023-05-05T04:42:35.287Z,328.00
2023-05-05T04:43:35.253Z,327.00
2023-05-05T04:44:35.271Z,326.00
2023-05-05T04:45:35.307Z,325.00
2023-05-05T04:46:35.366Z,323.00
2023-05-05T04:47:35.382Z,321.00
2023-05-05T04:48:35.388Z,323.00
2023-05-05T04:49:35.382Z,324.00
2023-05-05T04:50:35.395Z,324.00
2023-05-05T04:51:35.417Z,325.00
2023-05-05T04:52:35.450Z,324.00
2023-05-05T04:53:35.481Z,321.00
2023-05-05T04:54:35.488Z,322.00
2023-05-05T04:55:35.538Z,323.00
2023-05-05T04:56:35.531Z,324.00
2023-05-05T04:57:35.626Z,324.00
2023-05-05T04:58:35.665Z,326.00
2023-05-05T04:59:35.733Z,328.00
2023-05-05T05:00:35.737Z,329.00
2023-05-05T05:01:38.265Z,328.00
2023-05-05T05:02:35.855Z,327.00
2023-05-05T05:03:35.852Z,329.00
2023-05-05T05:04:35.768Z,328.00
2023-05-05T05:05:35.734Z,327.00
2023-05-05T05:06:35.736Z,328.00
2023-05-05T05:07:35.741Z,328.00
2023-05-05T05:08:35.780Z,331.00
2023-05-05T05:09:35.718Z,333.00
2023-05-05T05:10:35.765Z,333.00
2023-05-05T05:11:35.713Z,331.00
2023-05-05T05:12:35.766Z,332.00
2023-05-05T05:13:35.678Z,328.00
2023-05-05T05:14:35.709Z,328.00
2023-05-05T05:15:35.696Z,329.00
2023-05-05T05:16:35.729Z,331.00
2023-05-05T05:17:35.686Z,330.00
2023-05-05T05:18:35.716Z,329.00
2023-05-05T05:19:35.662Z,327.00
2023-05-05T05:20:35.643Z,328.00
2023-05-05T05:21:35.647Z,327.00
2023-05-05T05:22:35.627Z,327.00
2023-05-05T05:23:35.619Z,327.00
2023-05-05T05:24:35.649Z,326.00
2023-05-05T05:25:35.655Z,326.00
2023-05-05T05:26:35.614Z,326.00
2023-05-05T05:27:35.645Z,326.00
2023-05-05T05:28:35.606Z,325.00
2023-05-05T05:29:35.587Z,328.00
2023-05-05T05:30:35.594Z,332.00
2023-05-05T05:31:35.624Z,334.00
2023-05-05T05:32:35.633Z,336.00
2023-05-05T05:33:35.608Z,337.00
2023-05-05T05:34:35.942Z,341.00
2023-05-05T05:35:35.553Z,346.00
2023-05-05T05:36:35.571Z,351.00
2023-05-05T05:37:35.583Z,361.00
2023-05-05T05:38:35.554Z,375.00
2023-05-05T05:39:35.575Z,401.00
2023-05-05T05:40:35.555Z,414.00
2023-05-05T05:41:35.532Z,422.00
2023-05-05T05:42:35.575Z,433.00
2023-05-05T05:43:35.498Z,446.00
2023-05-05T05:44:35.909Z,457.00
2023-05-05T05:45:35.479Z,473.00
2023-05-05T05:46:35.591Z,503.00
2023-05-05T05:47:35.513Z,527.00
2023-05-05T05:48:36.473Z,544.00
2023-05-05T05:49:36.056Z,548.00
2023-05-05T05:50:35.544Z,549.00
2023-05-05T05:51:35.504Z,545.00
2023-05-05T05:52:35.427Z,545.00
2023-05-05T05:53:35.478Z,543.00
2023-05-05T05:54:36.085Z,541.00
2023-05-05T05:55:37.529Z,538.00
2023-05-05T05:56:35.984Z,533.00
2023-05-05T05:57:35.496Z,527.00
2023-05-05T05:58:35.481Z,521.00
2023-05-05T05:59:35.470Z,516.00
2023-05-05T06:00:35.421Z,510.00
2023-05-05T06:01:35.506Z,503.00
2023-05-05T06:02:35.513Z,496.00
2023-05-05T06:03:35.528Z,491.00
2023-05-05T06:04:35.766Z,491.00
2023-05-05T06:05:35.485Z,486.00
2023-05-05T06:06:35.514Z,483.00
2023-05-05T06:07:35.599Z,478.00
2023-05-05T06:08:36.019Z,474.00
2023-05-05T06:09:35.636Z,471.00
2023-05-05T06:10:35.711Z,465.00
2023-05-05T06:11:35.723Z,459.00
2023-05-05T06:12:35.683Z,453.00
2023-05-05T06:13:35.974Z,448.00
2023-05-05T06:14:35.701Z,448.00
2023-05-05T06:15:35.792Z,444.00
2023-05-05T06:16:35.773Z,442.00
2023-05-05T06:17:36.471Z,440.00
2023-05-05T06:18:35.778Z,436.00
2023-05-05T06:19:35.749Z,431.00
2023-05-05T06:20:35.795Z,427.00
2023-05-05T06:21:35.765Z,423.00
2023-05-05T06:22:35.800Z,417.00
2023-05-05T06:23:35.767Z,412.00
2023-05-05T06:24:35.781Z,410.00
2023-05-05T06:25:35.756Z,410.00
2023-05-05T06:26:35.814Z,410.00
2023-05-05T06:27:35.844Z,409.00
2023-05-05T06:28:35.969Z,408.00
2023-05-05T06:29:35.925Z,409.00
2023-05-05T06:30:35.987Z,408.00
2023-05-05T06:31:36.052Z,408.00
2023-05-05T06:32:36.145Z,409.00
2023-05-05T06:33:36.196Z,408.00
2023-05-05T06:34:36.239Z,410.00
2023-05-05T06:35:36.440Z,410.00
2023-05-05T06:36:36.303Z,412.00
2023-05-05T06:37:36.267Z,412.00
2023-05-05T06:38:36.317Z,411.00
2023-05-05T06:39:36.321Z,410.00
2023-05-05T06:40:36.464Z,412.00
2023-05-05T06:41:36.410Z,411.00
2023-05-05T06:42:36.405Z,412.00
2023-05-05T06:43:36.435Z,409.00
2023-05-05T06:44:36.491Z,405.00
2023-05-05T06:45:36.481Z,403.00
2023-05-05T06:46:36.526Z,402.00
2023-05-05T06:47:36.556Z,401.00
2023-05-05T06:48:36.494Z,402.00
2023-05-05T06:49:36.426Z,403.00
2023-05-05T06:50:36.464Z,405.00
2023-05-05T06:51:36.442Z,405.00
2023-05-05T06:52:37.952Z,403.00
2023-05-05T06:53:36.474Z,401.00
2023-05-05T06:54:36.508Z,401.00
2023-05-05T06:55:36.994Z,400.00
2023-05-05T06:56:37.476Z,400.00
2023-05-05T06:57:36.493Z,401.00
2023-05-05T06:58:37.134Z,400.00
2023-05-05T06:59:36.556Z,402.00
2023-05-05T07:00:36.668Z,403.00
2023-05-05T07:01:36.709Z,404.00
2023-05-05T07:02:36.752Z,403.00
2023-05-05T07:03:36.820Z,402.00
2023-05-05T07:04:36.943Z,399.00
2023-05-05T07:05:36.912Z,398.00
2023-05-05T07:06:36.955Z,397.00
2023-05-05T07:07:37.043Z,395.00
2023-05-05T07:08:37.470Z,395.00
2023-05-05T07:09:37.104Z,395.00
2023-05-05T07:10:37.209Z,394.00
2023-05-05T07:11:37.231Z,395.00
2023-05-05T07:12:37.385Z,395.00
2023-05-05T07:13:37.558Z,395.00
2023-05-05T07:14:37.539Z,395.00
2023-05-05T07:15:37.487Z,395.00
2023-05-05T07:16:37.581Z,394.00
2023-05-05T07:17:37.590Z,394.00
2023-05-05T07:18:37.645Z,394.00
2023-05-05T07:19:37.656Z,394.00
2023-05-05T07:20:37.671Z,395.00
2023-05-05T07:21:37.753Z,397.00
2023-05-05T07:22:37.812Z,395.00
2023-05-05T07:23:37.925Z,391.00
2023-05-05T07:24:37.854Z,392.00
2023-05-05T07:25:37.896Z,392.00
2023-05-05T07:26:37.921Z,390.00
2023-05-05T07:27:37.883Z,389.00
2023-05-05T07:28:38.007Z,389.00
2023-05-05T07:29:38.049Z,389.00
2023-05-05T07:30:38.116Z,391.00
2023-05-05T07:31:38.498Z,393.00
2023-05-05T07:32:38.121Z,394.00
2023-05-05T07:33:38.070Z,397.00
2023-05-05T07:34:38.221Z,444.00
2023-05-05T07:35:38.488Z,434.00
2023-05-05T07:36:38.151Z,442.00
2023-05-05T07:37:38.200Z,456.00
2023-05-05T07:38:38.483Z,455.00
2023-05-05T07:39:38.470Z,456.00
2023-05-05T07:40:38.473Z,459.00
2023-05-05T07:41:38.292Z,465.00
2023-05-05T07:42:38.264Z,465.00
2023-05-05T07:43:39.392Z,464.00
2023-05-05T07:44:38.522Z,459.00
2023-05-05T07:45:38.331Z,452.00
2023-05-05T07:46:38.612Z,447.00
2023-05-05T07:47:38.444Z,441.00
2023-05-05T07:48:38.376Z,439.00
2023-05-05T07:49:38.583Z,434.00
2023-05-05T07:50:38.487Z,431.00
2023-05-05T07:51:38.488Z,426.00
2023-05-05T07:53:39.468Z,421.00
2023-05-05T07:54:38.528Z,415.00
2023-05-05T07:55:38.492Z,411.00
2023-05-05T07:56:38.453Z,408.00
2023-05-05T07:57:38.440Z,405.00
2023-05-05T07:58:38.530Z,403.00
2023-05-05T07:59:38.462Z,400.00
2023-05-05T08:00:38.480Z,397.00
2023-05-05T08:01:38.417Z,395.00
2023-05-05T08:02:38.611Z,393.00
2023-05-05T08:03:38.678Z,391.00
2023-05-05T08:04:38.403Z,389.00
2023-05-05T08:05:38.371Z,384.00
2023-05-05T08:06:38.343Z,380.00
2023-05-05T08:07:38.381Z,378.00
2023-05-05T08:08:38.389Z,376.00
2023-05-05T08:09:38.369Z,374.00
2023-05-05T08:10:38.338Z,375.00
2023-05-05T08:11:38.353Z,372.00
2023-05-05T08:12:38.439Z,370.00
2023-05-05T08:13:38.334Z,369.00
2023-05-05T08:14:38.373Z,368.00
2023-05-05T08:15:38.532Z,368.00
2023-05-05T08:16:38.384Z,368.00
2023-05-05T08:17:38.447Z,367.00
2023-05-05T08:18:38.541Z,368.00
2023-05-05T08:19:38.430Z,367.00
2023-05-05T08:20:38.523Z,367.00
2023-05-05T08:21:38.422Z,367.00
2023-05-05T08:22:38.424Z,366.00
2023-05-05T08:23:38.448Z,367.00
2023-05-05T08:24:38.412Z,367.00
2023-05-05T08:25:38.514Z,366.00
2023-05-05T08:26:38.446Z,370.00
2023-05-05T08:27:38.419Z,489.00
2023-05-05T08:28:38.429Z,498.00
2023-05-05T08:29:38.527Z,444.00
2023-05-05T08:30:38.474Z,428.00
2023-05-05T08:31:38.568Z,393.00
2023-05-05T08:32:38.812Z,395.00
2023-05-05T08:33:38.673Z,394.00
2023-05-05T08:34:38.779Z,383.00
2023-05-05T08:35:38.801Z,378.00
2023-05-05T08:36:39.078Z,370.00
2023-05-05T08:37:39.109Z,349.00
2023-05-05T08:38:38.820Z,352.00
2023-05-05T08:39:38.816Z,348.00
2023-05-05T08:40:38.864Z,345.00
2023-05-05T08:41:38.867Z,339.00
2023-05-05T08:42:39.610Z,340.00
2023-05-05T08:43:38.984Z,342.00
2023-05-05T08:44:38.919Z,355.00
2023-05-05T08:45:38.920Z,393.00
2023-05-05T08:46:39.090Z,407.00
2023-05-05T08:47:39.092Z,416.00
2023-05-05T08:48:38.908Z,424.00
2023-05-05T08:49:38.917Z,435.00
2023-05-05T08:50:39.047Z,508.00
2023-05-05T08:51:39.005Z,507.00
2023-05-05T08:52:38.947Z,499.00
2023-05-05T08:53:38.917Z,488.00
2023-05-05T08:54:39.036Z,494.00
2023-05-05T08:55:39.042Z,509.00
2023-05-05T08:56:39.099Z,516.00
2023-05-05T08:57:39.145Z,518.00
2023-05-05T08:58:39.202Z,508.00
2023-05-05T08:59:39.271Z,532.00
2023-05-05T09:00:39.326Z,536.00
2023-05-05T09:01:39.403Z,535.00
2023-05-05T09:02:39.457Z,534.00
2023-05-05T09:03:39.529Z,527.00
2023-05-05T09:04:40.039Z,516.00
2023-05-05T09:05:39.613Z,498.00
2023-05-05T09:06:39.731Z,491.00
2023-05-05T09:07:39.710Z,490.00
2023-05-05T09:08:39.788Z,488.00
2023-05-05T09:09:39.789Z,477.00
2023-05-05T09:10:39.767Z,478.00
2023-05-05T09:11:39.812Z,474.00
2023-05-05T09:12:40.100Z,470.00
2023-05-05T09:13:40.085Z,459.00
2023-05-05T09:14:39.835Z,453.00
2023-05-05T09:15:39.877Z,444.00
2023-05-05T09:16:39.968Z,437.00
2023-05-05T09:17:40.019Z,406.00
2023-05-05T09:18:40.056Z,396.00
2023-05-05T09:19:40.062Z,385.00
2023-05-05T09:20:40.052Z,385.00
2023-05-05T09:21:40.072Z,376.00
2023-05-05T09:22:40.223Z,378.00
2023-05-05T09:23:40.563Z,383.00
2023-05-05T09:24:40.144Z,391.00
2023-05-05T09:25:40.229Z,396.00
2023-05-05T09:26:40.280Z,451.00
2023-05-05T09:27:40.576Z,437.00
2023-05-05T09:28:40.529Z,434.00
2023-05-05T09:29:40.390Z,454.00
2023-05-05T09:30:40.423Z,464.00
2023-05-05T09:31:40.411Z,472.00
2023-05-05T09:32:40.410Z,479.00
2023-05-05T09:33:40.360Z,500.00
2023-05-05T09:34:40.424Z,498.00
2023-05-05T09:35:40.453Z,492.00
2023-05-05T09:36:40.558Z,488.00
2023-05-05T09:37:40.603Z,486.00
2023-05-05T09:38:40.798Z,481.00
2023-05-05T09:39:40.674Z,458.00
2023-05-05T09:40:40.733Z,443.00
2023-05-05T09:41:40.844Z,436.00
2023-05-05T09:42:40.843Z,442.00
2023-05-05T09:43:41.057Z,449.00
2023-05-05T09:44:40.966Z,455.00
2023-05-05T09:45:41.046Z,464.00
2023-05-05T09:46:41.156Z,469.00
2023-05-05T09:47:41.229Z,446.00
2023-05-05T09:48:41.552Z,426.00
2023-05-05T09:49:41.237Z,428.00
2023-05-05T09:50:41.266Z,435.00
2023-05-05T09:51:41.396Z,442.00
2023-05-05T09:52:41.414Z,450.00
2023-05-05T09:53:41.582Z,456.00
2023-05-05T09:54:41.571Z,455.00
2023-05-05T09:55:41.547Z,451.00
2023-05-05T09:56:41.586Z,442.00
2023-05-05T09:57:41.654Z,414.00
2023-05-05T09:58:41.780Z,404.00
2023-05-05T09:59:42.076Z,385.00
2023-05-05T10:00:41.778Z,376.00
2023-05-05T10:01:41.820Z,371.00
2023-05-05T10:02:41.947Z,372.00
2023-05-05T10:03:41.811Z,373.00
2023-05-05T10:04:41.894Z,371.00
2023-05-05T10:05:41.883Z,367.00
2023-05-05T10:06:41.882Z,362.00
2023-05-05T10:07:41.869Z,356.00
2023-05-05T10:08:41.926Z,353.00
2023-05-05T10:09:41.987Z,352.00
2023-05-05T10:10:42.045Z,351.00
2023-05-05T10:11:41.954Z,352.00
2023-05-05T10:12:42.129Z,354.00
2023-05-05T10:13:42.114Z,358.00
2023-05-05T10:14:41.974Z,366.00
2023-05-05T10:15:42.025Z,374.00
2023-05-05T10:16:42.146Z,374.00
2023-05-05T10:17:47.865Z,378.00
2023-05-05T10:18:43.212Z,383.00
2023-05-05T10:19:42.074Z,391.00
2023-05-05T10:20:42.063Z,396.00
2023-05-05T10:21:42.308Z,401.00
2023-05-05T10:22:42.034Z,408.00
2023-05-05T10:23:42.063Z,404.00
2023-05-05T10:24:42.136Z,402.00
2023-05-05T10:25:42.044Z,397.00
2023-05-05T10:26:42.058Z,399.00
2023-05-05T10:27:42.068Z,404.00
2023-05-05T10:28:42.138Z,406.00
2023-05-05T10:29:42.195Z,406.00
2023-05-05T10:30:42.258Z,412.00
2023-05-05T10:31:42.293Z,417.00
2023-05-05T10:33:42.442Z,489.00
2023-05-05T10:34:42.356Z,497.00
2023-05-05T10:35:42.303Z,496.00
2023-05-05T10:36:42.302Z,490.00
2023-05-05T10:37:42.698Z,473.00
2023-05-05T10:38:42.254Z,466.00
2023-05-05T10:39:42.320Z,467.00
2023-05-05T10:40:42.283Z,466.00
2023-05-05T10:41:42.625Z,468.00
2023-05-05T10:42:42.402Z,474.00
2023-05-05T10:43:42.234Z,476.00
2023-05-05T10:44:42.259Z,478.00
2023-05-05T10:45:42.364Z,477.00
2023-05-05T10:46:42.369Z,478.00
2023-05-05T10:47:42.222Z,480.00
2023-05-05T10:48:42.217Z,483.00
2023-05-05T10:49:42.182Z,485.00
2023-05-05T10:50:42.243Z,483.00
2023-05-05T10:51:42.636Z,481.00
2023-05-05T10:52:42.593Z,481.00
2023-05-05T10:53:42.184Z,482.00
2023-05-05T10:54:42.181Z,483.00
2023-05-05T10:55:42.602Z,483.00
2023-05-05T10:56:42.153Z,489.00
2023-05-05T10:57:42.164Z,497.00
2023-05-05T10:58:58.186Z,506.00
2023-05-05T10:59:43.135Z,505.00
2023-05-05T11:00:42.164Z,504.00
2023-05-05T11:01:42.131Z,512.00
2023-05-05T11:02:42.598Z,520.00
2023-05-05T11:03:42.134Z,529.00
2023-05-05T11:04:42.083Z,540.00
2023-05-05T11:05:42.121Z,552.00
2023-05-05T11:06:42.111Z,560.00
2023-05-05T11:07:42.098Z,571.00
2023-05-05T11:08:42.078Z,576.00
2023-05-05T11:09:42.032Z,587.00
2023-05-05T11:10:42.105Z,593.00
2023-05-05T11:11:42.125Z,609.00
2023-05-05T11:12:42.243Z,616.00
2023-05-05T11:13:42.285Z,619.00
2023-05-05T11:14:42.333Z,625.00
2023-05-05T11:15:42.366Z,646.00
2023-05-05T11:16:42.429Z,658.00
2023-05-05T11:17:42.520Z,670.00
2023-05-05T11:18:42.608Z,687.00
2023-05-05T11:19:42.560Z,727.00
2023-05-05T11:20:42.617Z,737.00
2023-05-05T11:21:43.128Z,728.00
2023-05-05T11:22:42.690Z,701.00
2023-05-05T11:23:42.753Z,678.00
2023-05-05T11:24:42.795Z,649.00
2023-05-05T11:25:42.818Z,631.00
2023-05-05T11:26:42.841Z,622.00
2023-05-05T11:27:42.911Z,616.00
2023-05-05T11:28:42.942Z,609.00
2023-05-05T11:29:43.010Z,600.00
2023-05-05T11:30:43.108Z,594.00
2023-05-05T11:31:43.044Z,580.00
2023-05-05T11:32:43.150Z,570.00
2023-05-05T11:33:43.164Z,553.00
2023-05-05T11:34:43.198Z,543.00
2023-05-05T11:35:43.243Z,542.00
2023-05-05T11:36:43.294Z,537.00
2023-05-05T11:37:43.274Z,531.00
2023-05-05T11:38:43.361Z,526.00
2023-05-05T11:39:43.378Z,515.00
2023-05-05T11:40:43.393Z,506.00
2023-05-05T11:41:43.450Z,498.00
2023-05-05T11:42:43.507Z,491.00
2023-05-05T11:43:43.543Z,485.00
2023-05-05T11:44:43.574Z,478.00
2023-05-05T11:45:43.624Z,481.00
2023-05-05T11:46:43.772Z,480.00
2023-05-05T11:47:43.727Z,475.00
2023-05-05T11:48:43.779Z,474.00
2023-05-05T11:49:43.827Z,467.00
2023-05-05T11:50:43.844Z,458.00
2023-05-05T11:51:43.912Z,449.00
2023-05-05T11:52:43.958Z,447.00
2023-05-05T11:53:43.980Z,444.00
2023-05-05T11:54:44.034Z,441.00
2023-05-05T11:55:44.027Z,436.00
2023-05-05T11:56:44.147Z,432.00
2023-05-05T11:57:44.113Z,430.00
2023-05-05T11:58:44.160Z,427.00
2023-05-05T11:59:44.215Z,427.00
2023-05-05T12:00:44.274Z,426.00
2023-05-05T12:01:44.289Z,424.00
2023-05-05T12:02:44.512Z,424.00
2023-05-05T12:03:44.480Z,424.00
2023-05-05T12:04:44.421Z,423.00
2023-05-05T12:05:44.424Z,426.00
2023-05-05T12:06:44.447Z,605.00
2023-05-05T12:07:44.472Z,487.00
2023-05-05T12:08:44.539Z,404.00
2023-05-05T12:09:44.595Z,399.00
2023-05-05T12:10:44.611Z,417.00
2023-05-05T12:11:44.658Z,416.00
2023-05-05T12:12:44.736Z,419.00
2023-05-05T12:13:44.778Z,415.00
2023-05-05T12:14:44.821Z,412.00
2023-05-05T12:15:44.880Z,409.00
2023-05-05T12:16:45.026Z,411.00
2023-05-05T12:17:45.295Z,410.00
2023-05-05T12:18:45.109Z,407.00
2023-05-05T12:19:45.120Z,404.00
2023-05-05T12:20:45.150Z,399.00
2023-05-05T12:21:45.232Z,394.00
2023-05-05T12:22:45.328Z,392.00
2023-05-05T12:23:45.317Z,392.00
2023-05-05T12:24:45.400Z,391.00
2023-05-05T12:25:45.433Z,388.00
2023-05-05T12:26:45.474Z,385.00
2023-05-05T12:27:45.475Z,381.00
2023-05-05T12:28:45.482Z,379.00
2023-05-05T12:29:45.594Z,378.00
2023-05-05T12:30:45.629Z,375.00